createdAt,value
2022-10-15T00:07:55.097Z,97009.81
2022-10-15T00:17:56.561Z,97007.94
2022-10-15T00:27:57.994Z,96990.72
2022-10-15T00:38:00.675Z,96993.75
2022-10-15T00:48:04.604Z,96985.41
2022-10-15T00:58:17.811Z,96973.97
2022-10-15T01:08:19.834Z,96962.53
2022-10-15T01:18:28.990Z,96948.34
2022-10-15T01:28:43.224Z,96932.06
2022-10-15T01:39:00.212Z,96923.28
2022-10-15T01:49:05.736Z,96915.72
2022-10-15T01:59:10.134Z,96909.75
2022-10-15T02:09:38.217Z,96895.22
2022-10-15T02:19:48.961Z,96875.06
2022-10-15T02:29:52.704Z,96874.41
2022-10-15T02:39:54.707Z,96861.59
2022-10-15T02:49:56.319Z,96858.16
2022-10-15T02:59:58.612Z,96859.44
2022-10-15T03:10:02.732Z,96843.03
2022-10-15T03:20:05.337Z,96848.78
2022-10-15T03:30:11.003Z,96843.16
2022-10-15T03:40:14.605Z,96851.66
2022-10-15T03:50:18.083Z,96836.75
2022-10-15T04:00:20.516Z,96836.16
2022-10-15T04:10:23.973Z,96830.47
2022-10-15T04:20:25.600Z,96823.44
2022-10-15T04:30:27.309Z,96815.63
2022-10-15T04:40:33.661Z,96813.91
2022-10-15T04:50:35.452Z,96823.63
2022-10-15T05:00:54.653Z,96821.59
2022-10-15T05:11:14.689Z,96824.09
2022-10-15T05:21:17.468Z,96829.28
2022-10-15T05:31:23.055Z,96836.81
2022-10-15T05:41:30.680Z,96850.25
2022-10-15T05:51:32.398Z,96867.31
2022-10-15T06:01:42.859Z,96883.50
2022-10-15T06:11:44.429Z,96893.56
2022-10-15T06:21:53.043Z,96902.59
2022-10-15T06:31:55.797Z,96927.69
2022-10-15T06:41:57.298Z,96939.03
2022-10-15T06:52:08.928Z,96951.75
2022-10-15T07:02:11.041Z,96973.97
2022-10-15T07:12:12.507Z,96979.81
2022-10-15T07:22:13.954Z,96994.75
2022-10-15T07:32:17.218Z,97003.84
2022-10-15T07:42:18.776Z,97013.44
2022-10-15T07:52:20.231Z,97025.78
2022-10-15T08:02:25.472Z,97032.34
2022-10-15T08:12:28.811Z,97047.44
2022-10-15T08:22:30.476Z,97044.84
2022-10-15T08:32:33.539Z,97060.53
2022-10-15T08:42:42.850Z,97077.06
2022-10-15T08:52:47.115Z,97089.44
2022-10-15T09:03:20.211Z,97102.31
2022-10-15T09:13:31.138Z,97117.78
2022-10-15T09:23:34.106Z,97129.34
2022-10-15T09:33:38.863Z,97138.50
2022-10-15T09:43:44.557Z,97129.28
2022-10-15T09:54:01.506Z,97141.41
2022-10-15T10:04:10.817Z,97136.59
2022-10-15T10:14:23.267Z,97147.88
2022-10-15T10:24:31.959Z,97157.88
2022-10-15T10:34:35.101Z,97143.13
2022-10-15T10:44:39.301Z,97157.53
2022-10-15T11:04:44.032Z,97156.91
2022-10-15T11:15:27.194Z,97171.31
2022-10-15T11:25:34.359Z,97172.38
2022-10-15T11:35:53.745Z,97164.13
2022-10-15T11:46:28.080Z,97154.22
2022-10-15T11:56:38.739Z,97155.31
2022-10-15T12:06:47.653Z,97152.97
2022-10-15T12:17:04.604Z,97145.38
2022-10-15T12:27:15.538Z,97128.38
2022-10-15T12:37:19.128Z,97130.56
2022-10-15T12:47:51.455Z,97137.44
2022-10-15T12:58:23.326Z,97139.53
2022-10-15T13:08:26.473Z,97125.59
2022-10-15T13:18:31.448Z,97123.94
2022-10-15T13:28:36.748Z,97120.28
2022-10-15T13:38:41.097Z,97123.41
2022-10-15T13:58:47.677Z,97114.97
2022-10-15T14:08:52.406Z,97120.63
2022-10-15T14:18:58.935Z,97131.34
2022-10-15T14:29:01.957Z,97104.53
2022-10-15T14:39:39.127Z,97108.63
2022-10-15T14:49:40.721Z,97112.78
2022-10-15T14:59:42.421Z,97127.22
2022-10-15T15:09:47.401Z,97132.25
2022-10-15T15:19:51.385Z,97127.22
2022-10-15T15:29:53.497Z,97135.41
2022-10-15T15:39:56.308Z,97140.31
2022-10-15T15:49:57.773Z,97138.50
2022-10-15T15:59:59.224Z,97149.59
2022-10-15T16:10:03.978Z,97168.88
2022-10-15T16:20:05.930Z,97156.47
2022-10-15T16:30:08.279Z,97178.06
2022-10-15T16:40:10.370Z,97187.63
2022-10-15T16:50:11.898Z,97198.25
2022-10-15T17:00:13.737Z,97210.22
2022-10-15T17:10:15.331Z,97229.22
2022-10-15T17:20:16.905Z,97249.72
2022-10-15T17:30:18.372Z,97252.13
2022-10-15T17:40:19.882Z,97268.44
2022-10-15T17:50:21.391Z,97269.56
2022-10-15T18:00:23.123Z,97278.28
2022-10-15T18:10:24.780Z,97279.25
2022-10-15T18:20:26.560Z,97277.63
2022-10-15T18:30:28.190Z,97291.94
2022-10-15T18:40:38.656Z,97281.53
2022-10-15T18:50:43.938Z,97304.34
2022-10-15T19:00:45.423Z,97306.19
2022-10-15T19:10:47.332Z,97287.59
2022-10-15T19:20:48.763Z,97295.97
2022-10-15T19:30:59.119Z,97316.50
2022-10-15T19:41:04.663Z,97325.44
2022-10-15T19:51:06.954Z,97330.47
2022-10-15T20:01:09.999Z,97345.97
2022-10-15T20:11:12.139Z,97334.81
2022-10-15T20:21:15.415Z,97356.53
2022-10-15T20:31:28.232Z,97374.88
2022-10-15T20:41:29.802Z,97381.94
2022-10-15T20:51:31.617Z,97393.78
2022-10-15T21:01:34.678Z,97387.34
2022-10-15T21:11:41.132Z,97417.44
2022-10-15T21:21:42.764Z,97427.91
2022-10-15T21:31:44.271Z,97434.22
2022-10-15T21:41:45.991Z,97444.34
2022-10-15T21:51:48.321Z,97438.31
2022-10-15T22:01:49.821Z,97458.00
2022-10-15T22:11:51.277Z,97469.06
2022-10-15T22:21:52.747Z,97473.31
2022-10-15T22:31:55.530Z,97475.59
2022-10-15T22:41:57.201Z,97495.63
2022-10-15T22:51:58.767Z,97477.25
2022-10-15T23:02:00.903Z,97486.03
2022-10-15T23:12:02.367Z,97498.00
2022-10-15T23:22:03.848Z,97484.25
2022-10-15T23:32:05.403Z,97480.78
2022-10-15T23:42:07.076Z,97469.47
2022-10-15T23:52:08.849Z,97465.50
